createdAt,value
2019-04-26T00:00:27.199Z,41.32
2019-04-26T00:01:04.960Z,41.30
2019-04-26T00:01:42.629Z,41.33
2019-04-26T00:02:36.259Z,41.49
2019-04-26T00:03:26.020Z,41.63
2019-04-26T00:04:02.328Z,41.86
2019-04-26T00:04:38.478Z,41.94
2019-04-26T00:05:14.657Z,41.80
2019-04-26T00:05:50.916Z,41.77
2019-04-26T00:06:26.967Z,41.79
2019-04-26T00:07:03.012Z,41.73
2019-04-26T00:07:39.197Z,41.74
2019-04-26T00:08:15.831Z,41.75
2019-04-26T00:08:56.178Z,41.82
2019-04-26T00:09:40.030Z,42.00
2019-04-26T00:10:29.293Z,42.15
2019-04-26T00:11:08.147Z,42.20
2019-04-26T00:11:47.151Z,42.49
2019-04-26T00:12:39.992Z,42.64
2019-04-26T00:13:32.898Z,42.54
2019-04-26T00:14:19.611Z,42.65
2019-04-26T00:15:00.095Z,42.71
2019-04-26T00:15:54.400Z,42.70
2019-04-26T00:16:34.916Z,42.60
2019-04-26T00:17:13.624Z,42.79
2019-04-26T00:17:52.572Z,42.76
2019-04-26T00:18:28.615Z,42.71
2019-04-26T00:19:04.663Z,42.62
2019-04-26T00:19:41.925Z,42.61
2019-04-26T00:20:19.112Z,42.65
2019-04-26T00:20:55.321Z,42.63
2019-04-26T00:21:31.641Z,42.58
2019-04-26T00:22:08.011Z,42.54
2019-04-26T00:22:44.319Z,42.45
2019-04-26T00:23:20.366Z,42.52
2019-04-26T00:23:56.406Z,42.55
2019-04-26T00:24:32.718Z,42.69
2019-04-26T00:25:08.795Z,42.60
2019-04-26T00:25:47.842Z,42.54
2019-04-26T00:26:23.940Z,42.50
2019-04-26T00:27:00.037Z,42.50
2019-04-26T00:27:36.049Z,42.50
2019-04-26T00:28:12.839Z,42.49
2019-04-26T00:28:49.882Z,42.44
2019-04-26T00:29:25.997Z,42.26
2019-04-26T00:30:02.270Z,42.52
2019-04-26T00:30:38.625Z,42.34
2019-04-26T00:31:15.811Z,42.29
2019-04-26T00:31:51.982Z,42.36
2019-04-26T00:32:28.079Z,42.31
2019-04-26T00:33:04.204Z,42.28
2019-04-26T00:33:40.297Z,42.47
2019-04-26T00:34:17.469Z,42.26
2019-04-26T00:34:53.671Z,42.42
2019-04-26T00:35:29.770Z,42.27
2019-04-26T00:36:05.861Z,42.62
2019-04-26T00:36:42.028Z,42.66
2019-04-26T00:37:18.138Z,42.69
2019-04-26T00:37:54.176Z,42.49
2019-04-26T00:38:30.273Z,42.49
2019-04-26T00:39:06.890Z,42.56
2019-04-26T00:39:43.089Z,42.31
2019-04-26T00:40:20.261Z,42.27
2019-04-26T00:40:56.529Z,42.23
2019-04-26T00:41:32.632Z,42.33
2019-04-26T00:42:08.717Z,42.38
2019-04-26T00:42:44.817Z,42.23
2019-04-26T00:43:20.857Z,42.06
2019-04-26T00:43:56.965Z,41.98
2019-04-26T00:44:33.080Z,41.71
2019-04-26T00:45:09.125Z,41.65
2019-04-26T00:45:45.274Z,41.69
2019-04-26T00:46:21.430Z,41.63
2019-04-26T00:46:57.449Z,41.39
2019-04-26T00:47:33.546Z,41.41
2019-04-26T00:48:10.029Z,41.41
2019-04-26T00:48:46.062Z,41.30
2019-04-26T00:49:22.092Z,41.19
2019-04-26T00:49:58.487Z,41.21
2019-04-26T00:50:35.665Z,41.15
2019-04-26T00:51:12.790Z,41.39
2019-04-26T00:51:49.505Z,41.26
2019-04-26T00:52:25.673Z,41.20
2019-04-26T00:53:01.767Z,41.13
2019-04-26T00:53:37.868Z,41.05
2019-04-26T00:54:14.176Z,41.16
2019-04-26T00:54:50.546Z,41.17
2019-04-26T00:55:26.540Z,41.12
2019-04-26T00:56:02.561Z,41.03
2019-04-26T00:56:38.747Z,40.93
2019-04-26T00:57:15.969Z,40.88
2019-04-26T00:57:52.075Z,40.95
2019-04-26T00:58:28.321Z,41.04
2019-04-26T00:59:04.926Z,41.09
2019-04-26T00:59:40.930Z,40.96
2019-04-26T01:00:18.188Z,41.04
2019-04-26T01:00:55.426Z,40.93
2019-04-26T01:01:33.078Z,40.86
2019-04-26T01:02:10.750Z,40.83
2019-04-26T01:02:48.587Z,40.77
2019-04-26T01:03:25.028Z,40.96
2019-04-26T01:04:01.233Z,40.82
2019-04-26T01:04:37.273Z,40.80
2019-04-26T01:05:13.319Z,40.77
2019-04-26T01:05:59.590Z,40.78
2019-04-26T01:06:28.899Z,40.62
2019-04-26T01:07:04.988Z,40.80
2019-04-26T01:07:42.288Z,40.77
2019-04-26T01:08:19.214Z,40.66
2019-04-26T01:08:55.337Z,40.57
2019-04-26T01:09:31.398Z,40.56
2019-04-26T01:10:07.469Z,40.65
2019-04-26T01:10:43.512Z,40.71
2019-04-26T01:11:19.772Z,40.82
2019-04-26T01:11:55.831Z,40.86
2019-04-26T01:12:32.830Z,40.86
2019-04-26T01:13:08.851Z,40.83
2019-04-26T01:13:44.909Z,40.86
2019-04-26T01:14:21.990Z,40.90
2019-04-26T01:14:58.211Z,41.04
2019-04-26T01:15:34.306Z,41.17
2019-04-26T01:16:10.438Z,41.12
2019-04-26T01:16:46.476Z,41.06
2019-04-26T01:17:22.561Z,41.22
2019-04-26T01:17:58.644Z,41.14
2019-04-26T01:18:34.687Z,40.96
2019-04-26T01:19:10.732Z,40.91
2019-04-26T01:19:46.779Z,40.82
2019-04-26T01:20:22.976Z,41.00
2019-04-26T01:20:59.304Z,41.10
2019-04-26T01:21:38.607Z,41.12
2019-04-26T01:22:19.085Z,41.02
2019-04-26T01:22:54.787Z,41.03
2019-04-26T01:23:30.549Z,41.37
2019-04-26T01:24:06.598Z,41.48
2019-04-26T01:24:42.793Z,41.49
2019-04-26T01:25:40.241Z,41.48
2019-04-26T01:26:23.184Z,41.42
2019-04-26T01:26:59.735Z,41.53
2019-04-26T01:27:35.929Z,41.56
2019-04-26T01:28:18.089Z,41.57
2019-04-26T01:28:59.368Z,41.57
2019-04-26T01:29:35.685Z,41.68
2019-04-26T01:30:11.889Z,41.70
2019-04-26T01:30:48.030Z,41.75
2019-04-26T01:31:24.232Z,41.75
2019-04-26T01:32:09.544Z,41.79
2019-04-26T01:32:45.558Z,41.83
2019-04-26T01:33:21.959Z,41.92
2019-04-26T01:33:58.015Z,41.94
2019-04-26T01:34:34.045Z,41.92
2019-04-26T01:35:10.104Z,41.97
2019-04-26T01:35:46.129Z,41.99
2019-04-26T01:36:22.301Z,42.10
2019-04-26T01:36:58.369Z,42.16
2019-04-26T01:37:34.393Z,42.24
2019-04-26T01:38:13.149Z,42.38
2019-04-26T01:38:49.186Z,42.31
2019-04-26T01:39:25.808Z,42.38
2019-04-26T01:40:05.810Z,42.50
2019-04-26T01:40:42.620Z,42.57
2019-04-26T01:41:40.946Z,42.69
2019-04-26T01:42:22.319Z,42.71
2019-04-26T01:43:08.928Z,42.96
2019-04-26T01:44:01.695Z,43.07
2019-04-26T01:44:45.223Z,43.21
2019-04-26T01:45:29.019Z,43.37
2019-04-26T01:46:15.783Z,43.51
2019-04-26T01:46:52.231Z,43.69
2019-04-26T01:47:28.452Z,43.85
2019-04-26T01:48:09.381Z,43.80
2019-04-26T01:48:51.186Z,43.81
2019-04-26T01:49:28.234Z,43.76
2019-04-26T01:50:05.634Z,43.67
2019-04-26T01:50:41.650Z,43.90
2019-04-26T01:51:30.056Z,43.93
2019-04-26T01:52:10.550Z,43.67
2019-04-26T01:52:46.688Z,44.01
2019-04-26T01:53:24.613Z,43.99
2019-04-26T01:54:00.722Z,44.19
2019-04-26T01:54:39.766Z,44.28
2019-04-26T01:55:15.812Z,44.38
2019-04-26T01:55:52.002Z,44.50
2019-04-26T01:56:31.485Z,44.50
2019-04-26T01:57:07.575Z,44.48
2019-04-26T01:57:43.692Z,44.57
2019-04-26T01:58:19.734Z,44.54
2019-04-26T01:58:57.057Z,44.66
2019-04-26T01:59:33.168Z,44.75
2019-04-26T02:00:19.491Z,44.79
2019-04-26T02:00:58.237Z,44.81
2019-04-26T02:01:39.050Z,44.98
2019-04-26T02:02:25.737Z,45.10
2019-04-26T02:03:07.197Z,45.20
2019-04-26T02:03:43.242Z,45.29
2019-04-26T02:04:19.353Z,45.36
2019-04-26T02:04:57.041Z,45.34
2019-04-26T02:05:33.087Z,45.33
2019-04-26T02:06:09.140Z,45.38
2019-04-26T02:06:45.170Z,45.37
2019-04-26T02:07:39.799Z,45.36
2019-04-26T02:08:16.237Z,45.36
2019-04-26T02:08:52.269Z,45.55
2019-04-26T02:09:28.435Z,45.53
2019-04-26T02:10:09.974Z,45.50
2019-04-26T02:10:45.995Z,45.44
2019-04-26T02:11:23.531Z,45.50
2019-04-26T02:12:02.685Z,45.59
2019-04-26T02:12:38.779Z,45.54
2019-04-26T02:13:14.827Z,45.54
2019-04-26T02:13:50.930Z,45.56
2019-04-26T02:14:26.996Z,45.42
2019-04-26T02:15:03.396Z,45.49
2019-04-26T02:15:39.425Z,45.63
2019-04-26T02:16:15.455Z,45.67
2019-04-26T02:16:51.476Z,45.74
2019-04-26T02:17:27.499Z,45.75
2019-04-26T02:18:03.554Z,45.75
2019-04-26T02:18:39.664Z,45.49
2019-04-26T02:19:15.696Z,45.53
2019-04-26T02:19:51.704Z,45.42
2019-04-26T02:20:47.668Z,45.44
2019-04-26T02:21:26.398Z,45.42
2019-04-26T02:22:16.326Z,45.73
2019-04-26T02:22:59.522Z,45.79
2019-04-26T02:23:52.242Z,45.83
2019-04-26T02:24:30.154Z,45.81
2019-04-26T02:25:06.526Z,45.98
2019-04-26T02:25:42.654Z,45.94
2019-04-26T02:26:35.126Z,45.86
2019-04-26T02:27:12.909Z,45.86
2019-04-26T02:27:48.942Z,46.02
2019-04-26T02:28:26.663Z,46.21
2019-04-26T02:29:13.409Z,45.91
2019-04-26T02:29:49.570Z,45.88
2019-04-26T02:30:27.213Z,45.90
2019-04-26T02:31:03.447Z,45.86
2019-04-26T02:31:39.472Z,45.98
2019-04-26T02:32:15.519Z,45.88
2019-04-26T02:32:51.562Z,45.85
2019-04-26T02:33:29.655Z,45.83
2019-04-26T02:34:05.767Z,45.87
2019-04-26T02:34:41.856Z,45.80
2019-04-26T02:35:17.894Z,45.77
2019-04-26T02:35:53.937Z,45.76
2019-04-26T02:36:47.921Z,45.83
2019-04-26T02:37:08.694Z,45.82
2019-04-26T02:37:44.718Z,45.78
2019-04-26T02:38:20.753Z,45.85
2019-04-26T02:38:56.806Z,45.77
2019-04-26T02:39:38.529Z,45.79
2019-04-26T02:40:15.795Z,45.80
2019-04-26T02:40:51.884Z,45.89
2019-04-26T02:41:31.086Z,45.80
2019-04-26T02:42:11.556Z,45.80
2019-04-26T02:42:47.597Z,45.78
2019-04-26T02:43:23.736Z,45.75
2019-04-26T02:44:02.111Z,45.82
2019-04-26T02:44:44.681Z,45.77
2019-04-26T02:45:44.025Z,45.84
2019-04-26T02:46:32.506Z,45.84
2019-04-26T02:47:45.037Z,46.06
2019-04-26T02:48:23.672Z,46.08
2019-04-26T02:49:08.776Z,46.28
2019-04-26T02:49:47.457Z,46.10
2019-04-26T02:50:25.314Z,46.10
2019-04-26T02:51:07.960Z,45.99
2019-04-26T02:52:14.431Z,46.00
2019-04-26T02:52:53.727Z,46.01
2019-04-26T02:53:50.816Z,46.24
2019-04-26T02:54:47.705Z,46.16
2019-04-26T02:55:47.815Z,46.12
2019-04-26T02:56:31.765Z,46.24
2019-04-26T02:57:08.102Z,46.30
2019-04-26T02:57:47.407Z,46.16
2019-04-26T02:58:23.645Z,46.11
2019-04-26T02:59:03.046Z,45.90
2019-04-26T02:59:40.965Z,45.81
2019-04-26T03:00:20.401Z,45.80
2019-04-26T03:00:57.673Z,45.78
2019-04-26T03:01:35.985Z,45.76
2019-04-26T03:02:15.015Z,45.60
2019-04-26T03:02:53.962Z,45.62
2019-04-26T03:03:31.668Z,45.64
2019-04-26T03:04:07.783Z,45.63
2019-04-26T03:04:43.828Z,45.63
2019-04-26T03:05:19.872Z,45.56
2019-04-26T03:05:55.998Z,45.35
2019-04-26T03:06:34.259Z,45.25
2019-04-26T03:07:13.027Z,45.09
2019-04-26T03:07:54.830Z,45.11
2019-04-26T03:08:31.906Z,45.05
2019-04-26T03:09:08.693Z,44.96
2019-04-26T03:09:44.785Z,44.95
2019-04-26T03:10:22.545Z,44.88
2019-04-26T03:11:01.844Z,44.83
2019-04-26T03:11:50.174Z,44.87
2019-04-26T03:12:32.009Z,44.90
2019-04-26T03:13:08.461Z,45.03
2019-04-26T03:13:58.586Z,44.99
2019-04-26T03:14:42.165Z,44.96
2019-04-26T03:15:39.410Z,45.10
2019-04-26T03:16:23.699Z,45.04
2019-04-26T03:17:03.265Z,45.10
2019-04-26T03:17:50.025Z,45.06
2019-04-26T03:18:31.705Z,44.95
2019-04-26T03:19:19.021Z,44.97
2019-04-26T03:20:02.833Z,44.95
2019-04-26T03:20:42.261Z,44.96
2019-04-26T03:21:25.520Z,45.05
2019-04-26T03:22:16.529Z,45.10
2019-04-26T03:23:13.808Z,44.93
2019-04-26T03:23:59.028Z,44.99
2019-04-26T03:24:56.621Z,45.13
2019-04-26T03:25:47.693Z,45.07
2019-04-26T03:26:35.171Z,45.14
2019-04-26T03:27:43.369Z,45.43
2019-04-26T03:28:25.153Z,45.39
2019-04-26T03:29:16.533Z,45.43
2019-04-26T03:30:20.743Z,45.35
2019-04-26T03:31:05.533Z,45.24
2019-04-26T03:31:54.354Z,45.31
2019-04-26T03:32:54.262Z,45.22
2019-04-26T03:33:49.123Z,45.17
2019-04-26T03:34:23.487Z,45.32
2019-04-26T03:35:40.380Z,45.07
2019-04-26T03:36:33.970Z,44.93
2019-04-26T03:37:27.023Z,45.03
2019-04-26T03:38:16.543Z,45.04
2019-04-26T03:39:12.922Z,45.12
2019-04-26T03:40:11.642Z,45.05
2019-04-26T03:41:12.966Z,45.37
2019-04-26T03:42:05.179Z,45.46
2019-04-26T03:42:56.328Z,45.70
2019-04-26T03:43:59.615Z,45.67
2019-04-26T03:44:50.905Z,45.49
2019-04-26T03:45:50.822Z,45.28
2019-04-26T03:46:37.003Z,45.24
2019-04-26T03:47:16.135Z,45.23
2019-04-26T03:48:28.444Z,44.98
2019-04-26T03:49:25.609Z,45.02
2019-04-26T03:50:04.878Z,44.98
2019-04-26T03:50:58.907Z,44.98
2019-04-26T03:51:53.242Z,45.02
2019-04-26T03:52:42.160Z,45.05
2019-04-26T03:53:22.416Z,44.78
2019-04-26T03:54:04.975Z,45.00
2019-04-26T03:54:41.125Z,44.90
2019-04-26T03:55:28.073Z,44.88
2019-04-26T03:56:19.689Z,44.64
2019-04-26T03:57:03.261Z,44.71
2019-04-26T03:57:47.108Z,44.90
2019-04-26T03:58:28.914Z,44.58
2019-04-26T03:59:27.635Z,44.24
2019-04-26T04:00:24.771Z,44.34
2019-04-26T04:01:05.329Z,44.40
2019-04-26T04:01:46.637Z,44.37
2019-04-26T04:02:37.382Z,44.15
2019-04-26T04:03:35.426Z,44.01
2019-04-26T04:04:29.297Z,43.80
2019-04-26T04:05:24.404Z,44.01
2019-04-26T04:06:01.609Z,44.19
2019-04-26T04:06:56.722Z,44.00
2019-04-26T04:07:15.909Z,43.78
2019-04-26T04:07:52.515Z,44.03
2019-04-26T04:08:38.354Z,43.62
2019-04-26T04:09:17.936Z,43.66
2019-04-26T04:10:01.970Z,43.50
2019-04-26T04:10:43.237Z,43.20
2019-04-26T04:11:22.134Z,43.13
2019-04-26T04:12:18.863Z,43.35
2019-04-26T04:12:58.368Z,43.04
2019-04-26T04:13:44.402Z,43.08
2019-04-26T04:14:28.086Z,43.31
2019-04-26T04:15:10.024Z,43.61
2019-04-26T04:15:49.600Z,43.09
2019-04-26T04:16:52.779Z,43.04
2019-04-26T04:17:38.777Z,43.09
2019-04-26T04:18:19.204Z,43.13
2019-04-26T04:19:07.605Z,42.73
2019-04-26T04:20:12.540Z,42.94
2019-04-26T04:21:08.788Z,43.05
2019-04-26T04:21:57.332Z,43.11
2019-04-26T04:22:41.308Z,43.00
2019-04-26T04:23:35.220Z,43.10
2019-04-26T04:24:13.112Z,43.12
2019-04-26T04:25:07.082Z,42.56
2019-04-26T04:25:52.077Z,42.30
2019-04-26T04:27:04.198Z,42.05
2019-04-26T04:27:45.145Z,42.03
2019-04-26T04:28:44.559Z,42.20
2019-04-26T04:29:42.144Z,41.75
2019-04-26T04:30:23.565Z,42.14
2019-04-26T04:31:14.431Z,41.91
2019-04-26T04:31:59.469Z,42.05
2019-04-26T04:33:02.571Z,41.95
2019-04-26T04:33:43.591Z,41.89
2019-04-26T04:34:45.499Z,41.89
2019-04-26T04:35:22.093Z,41.58
2019-04-26T04:36:01.029Z,41.27
2019-04-26T04:36:45.878Z,41.05
2019-04-26T04:37:20.749Z,40.95
2019-04-26T04:38:08.527Z,40.79
2019-04-26T04:38:53.499Z,40.74
2019-04-26T04:40:00.656Z,40.76
2019-04-26T04:41:15.755Z,40.74
2019-04-26T04:42:33.946Z,40.76
2019-04-26T04:43:20.859Z,40.71
2019-04-26T04:44:35.699Z,40.69
2019-04-26T04:45:31.375Z,40.47
2019-04-26T04:46:49.778Z,40.60
2019-04-26T04:47:34.417Z,40.54
2019-04-26T04:48:18.012Z,40.63
2019-04-26T04:49:18.223Z,40.44
2019-04-26T04:50:01.957Z,40.28
2019-04-26T04:50:44.805Z,40.18
2019-04-26T04:51:42.843Z,39.98
2019-04-26T04:52:31.739Z,39.82
2019-04-26T04:53:32.949Z,40.03
2019-04-26T04:54:23.169Z,39.77
2019-04-26T04:55:07.943Z,39.75
2019-04-26T04:55:55.020Z,39.63
2019-04-26T04:56:43.627Z,39.56
2019-04-26T04:57:22.960Z,39.38
2019-04-26T04:58:02.257Z,39.37
2019-04-26T04:58:46.313Z,39.14
2019-04-26T04:59:28.613Z,39.02
2019-04-26T05:00:11.833Z,39.07
2019-04-26T05:01:26.832Z,38.85
2019-04-26T05:02:33.063Z,38.71
2019-04-26T05:03:37.750Z,39.00
2019-04-26T05:04:28.566Z,38.95
2019-04-26T05:05:26.859Z,38.99
2019-04-26T05:06:34.656Z,39.15
2019-04-26T05:07:23.669Z,39.02
2019-04-26T05:08:17.076Z,38.94
2019-04-26T05:09:06.639Z,38.81
2019-04-26T05:09:51.910Z,39.49
2019-04-26T05:10:34.191Z,39.46
2019-04-26T05:11:19.309Z,39.52
2019-04-26T05:12:04.487Z,39.46
2019-04-26T05:12:49.998Z,39.50
2019-04-26T05:13:43.605Z,39.65
2019-04-26T05:14:40.257Z,39.34
2019-04-26T05:15:38.830Z,39.27
2019-04-26T05:16:28.224Z,39.43
2019-04-26T05:17:26.677Z,39.10
2019-04-26T05:18:05.008Z,38.97
2019-04-26T05:19:26.961Z,38.98
2019-04-26T05:20:15.065Z,38.81
2019-04-26T05:21:00.040Z,38.56
2019-04-26T05:21:39.335Z,38.20
2019-04-26T05:22:33.328Z,38.08
2019-04-26T05:23:44.651Z,37.87
2019-04-26T05:24:30.988Z,37.77
2019-04-26T05:25:17.642Z,37.86
2019-04-26T05:26:29.896Z,38.14
2019-04-26T05:27:29.930Z,37.91
2019-04-26T05:28:15.744Z,37.57
2019-04-26T05:29:38.895Z,37.34
2019-04-26T05:30:30.843Z,37.15
2019-04-26T05:31:28.924Z,37.21
2019-04-26T05:32:33.759Z,37.17
2019-04-26T05:33:15.998Z,37.42
2019-04-26T05:34:16.182Z,37.07
2019-04-26T05:35:42.005Z,36.89
2019-04-26T05:36:21.288Z,36.88
2019-04-26T05:37:00.661Z,36.16
2019-04-26T05:37:53.051Z,35.44
2019-04-26T05:39:03.392Z,35.21
2019-04-26T05:39:57.719Z,34.98
2019-04-26T05:40:45.519Z,34.61
2019-04-26T05:41:59.158Z,34.36
2019-04-26T05:43:08.042Z,34.39
2019-04-26T05:44:10.675Z,34.37
2019-04-26T05:45:07.339Z,34.61
2019-04-26T05:46:12.097Z,34.46
2019-04-26T05:47:10.677Z,33.60
2019-04-26T05:48:11.893Z,33.64
2019-04-26T05:49:14.863Z,34.00
2019-04-26T05:50:07.466Z,33.58
2019-04-26T05:51:21.127Z,32.87
2019-04-26T05:52:25.939Z,32.53
2019-04-26T05:53:09.582Z,32.19
2019-04-26T05:54:11.180Z,32.20
2019-04-26T05:55:20.230Z,31.76
2019-04-26T05:56:24.840Z,31.43
2019-04-26T05:57:05.637Z,31.17
2019-04-26T05:57:47.064Z,31.10
2019-04-26T05:58:46.772Z,31.14
2019-04-26T05:59:31.671Z,30.74
2019-04-26T06:00:23.540Z,30.52
2019-04-26T06:01:07.230Z,30.23
2019-04-26T06:02:03.088Z,30.19
2019-04-26T06:02:47.012Z,30.11
2019-04-26T06:03:39.462Z,29.55
2019-04-26T06:04:48.674Z,29.46
2019-04-26T06:05:46.585Z,29.39
2019-04-26T06:06:30.460Z,28.66
2019-04-26T06:07:25.786Z,28.57
2019-04-26T06:08:30.643Z,28.60
2019-04-26T06:09:13.970Z,28.88
2019-04-26T06:10:21.778Z,28.78
2019-04-26T06:11:05.479Z,28.50
2019-04-26T06:12:05.593Z,28.25
2019-04-26T06:13:11.104Z,28.14
2019-04-26T06:14:03.366Z,27.74
2019-04-26T06:15:08.237Z,27.38
2019-04-26T06:16:12.788Z,27.99
2019-04-26T06:17:09.821Z,28.06
2019-04-26T06:18:13.649Z,27.31
2019-04-26T06:19:25.966Z,27.10
2019-04-26T06:20:23.662Z,26.72
2019-04-26T06:21:19.044Z,26.87
2019-04-26T06:22:16.260Z,26.52
2019-04-26T06:23:02.092Z,25.96
2019-04-26T06:23:40.669Z,25.96
2019-04-26T06:24:37.833Z,25.79
2019-04-26T06:25:27.541Z,26.12
2019-04-26T06:26:29.061Z,26.31
2019-04-26T06:27:24.894Z,25.60
2019-04-26T06:28:03.344Z,25.60
2019-04-26T06:28:54.725Z,25.32
2019-04-26T06:29:45.805Z,25.30
2019-04-26T06:30:23.666Z,24.75
2019-04-26T06:31:03.481Z,24.78
2019-04-26T06:31:45.045Z,24.68
2019-04-26T06:32:27.347Z,24.77
2019-04-26T06:33:15.397Z,24.64
2019-04-26T06:34:20.061Z,24.56
2019-04-26T06:35:07.928Z,24.56
2019-04-26T06:35:45.602Z,24.64
2019-04-26T06:36:23.549Z,24.27
2019-04-26T06:37:24.933Z,24.26
2019-04-26T06:38:03.984Z,24.39
2019-04-26T06:39:14.586Z,24.30
2019-04-26T06:39:59.961Z,23.85
2019-04-26T06:40:58.219Z,23.72
2019-04-26T06:42:05.066Z,23.82
2019-04-26T06:42:54.769Z,23.32
2019-04-26T06:43:34.738Z,22.95
2019-04-26T06:44:24.040Z,22.73
2019-04-26T06:45:26.267Z,22.80
2019-04-26T06:46:09.958Z,22.42
2019-04-26T06:47:04.785Z,22.55
2019-04-26T06:47:48.630Z,22.61
2019-04-26T06:48:41.436Z,22.23
2019-04-26T06:49:53.697Z,22.24
2019-04-26T06:51:01.304Z,22.27
2019-04-26T06:51:40.702Z,22.09
2019-04-26T06:52:20.151Z,22.01
2019-04-26T06:53:20.467Z,21.97
2019-04-26T06:54:00.650Z,21.98
2019-04-26T06:54:45.659Z,21.90
2019-04-26T06:55:23.546Z,21.32
2019-04-26T06:56:16.442Z,21.14
2019-04-26T06:57:08.861Z,21.02
2019-04-26T06:58:04.905Z,20.76
2019-04-26T06:58:59.265Z,20.86
2019-04-26T06:59:59.196Z,20.44
2019-04-26T07:00:47.582Z,20.26
2019-04-26T07:01:41.681Z,20.23
2019-04-26T07:02:23.944Z,19.91
2019-04-26T07:03:21.241Z,20.04
2019-04-26T07:04:19.741Z,19.87
2019-04-26T07:05:09.455Z,19.52
2019-04-26T07:05:46.127Z,19.57
2019-04-26T07:06:34.759Z,19.59
2019-04-26T07:07:20.732Z,19.48
2019-04-26T07:08:03.420Z,19.48
2019-04-26T07:08:57.669Z,20.00
2019-04-26T07:09:45.683Z,20.55
2019-04-26T07:10:27.799Z,20.50
2019-04-26T07:11:24.884Z,20.43
2019-04-26T07:12:26.469Z,20.18
2019-04-26T07:13:23.545Z,20.37
2019-04-26T07:14:37.040Z,20.17
2019-04-26T07:15:31.495Z,20.12
2019-04-26T07:16:27.156Z,20.07
2019-04-26T07:17:09.320Z,19.79
2019-04-26T07:18:04.372Z,19.55
2019-04-26T07:19:08.227Z,19.08
2019-04-26T07:20:16.154Z,19.21
2019-04-26T07:21:17.676Z,19.65
2019-04-26T07:22:16.374Z,19.97
2019-04-26T07:23:18.874Z,20.19
2019-04-26T07:24:16.258Z,19.79
2019-04-26T07:25:09.029Z,19.33
2019-04-26T07:26:06.365Z,19.36
2019-04-26T07:27:05.313Z,19.32
2019-04-26T07:28:03.177Z,19.12
2019-04-26T07:29:06.884Z,18.38
2019-04-26T07:29:58.544Z,18.39
2019-04-26T07:30:55.882Z,18.58
2019-04-26T07:31:40.768Z,18.17
2019-04-26T07:32:35.077Z,18.45
2019-04-26T07:33:14.069Z,18.36
2019-04-26T07:34:26.229Z,18.37
2019-04-26T07:35:15.768Z,18.30
2019-04-26T07:36:12.047Z,18.22
2019-04-26T07:36:57.037Z,18.39
2019-04-26T07:37:45.498Z,18.22
2019-04-26T07:38:26.518Z,18.03
2019-04-26T07:39:25.040Z,18.37
2019-04-26T07:40:11.894Z,18.43
2019-04-26T07:41:22.790Z,18.01
2019-04-26T07:42:21.527Z,18.01
2019-04-26T07:43:26.192Z,18.50
2019-04-26T07:44:27.910Z,18.39
2019-04-26T07:45:08.842Z,18.93
2019-04-26T07:45:50.119Z,19.37
2019-04-26T07:46:29.652Z,19.34
2019-04-26T07:47:15.342Z,19.67
2019-04-26T07:48:18.624Z,19.82
2019-04-26T07:49:18.709Z,20.28
2019-04-26T07:50:32.355Z,20.74
2019-04-26T07:51:44.527Z,20.84
2019-04-26T07:52:44.065Z,20.49
2019-04-26T07:53:32.280Z,20.42
2019-04-26T07:54:37.098Z,20.43
2019-04-26T07:55:40.797Z,20.79
2019-04-26T07:56:32.164Z,21.17
2019-04-26T07:57:45.864Z,21.29
2019-04-26T07:58:57.865Z,21.61
2019-04-26T07:59:37.222Z,22.19
2019-04-26T08:00:44.209Z,22.54
2019-04-26T08:01:52.077Z,22.47
2019-04-26T08:02:44.411Z,22.51
2019-04-26T08:03:30.712Z,22.00
2019-04-26T08:04:11.542Z,22.07
2019-04-26T08:05:04.276Z,22.05
2019-04-26T08:05:48.367Z,21.80
2019-04-26T08:06:29.906Z,21.89
2019-04-26T08:07:10.294Z,22.43
2019-04-26T08:07:48.786Z,22.56
2019-04-26T08:08:27.930Z,22.57
2019-04-26T08:09:07.514Z,22.67
2019-04-26T08:09:59.512Z,22.94
2019-04-26T08:10:26.352Z,23.10
2019-04-26T08:11:17.070Z,22.63
2019-04-26T08:12:07.972Z,22.87
2019-04-26T08:12:48.421Z,22.90
2019-04-26T08:13:24.523Z,22.52
2019-04-26T08:14:15.645Z,22.24
2019-04-26T08:14:59.515Z,21.76
2019-04-26T08:15:47.732Z,21.11
2019-04-26T08:16:35.139Z,20.83
2019-04-26T08:17:20.819Z,20.35
2019-04-26T08:18:06.671Z,20.06
2019-04-26T08:18:50.642Z,20.03
2019-04-26T08:19:27.399Z,19.68
2019-04-26T08:20:15.448Z,19.70
2019-04-26T08:20:53.162Z,19.45
2019-04-26T08:21:33.857Z,19.85
2019-04-26T08:22:18.477Z,19.70
2019-04-26T08:22:49.102Z,20.56
2019-04-26T08:23:41.079Z,21.02
2019-04-26T08:24:21.474Z,21.18
2019-04-26T08:24:58.099Z,21.52
2019-04-26T08:25:33.862Z,22.03
2019-04-26T08:26:13.415Z,22.51
2019-04-26T08:26:52.789Z,22.69
2019-04-26T08:27:29.164Z,23.08
2019-04-26T08:28:07.259Z,23.36
2019-04-26T08:28:44.079Z,23.77
2019-04-26T08:29:20.474Z,24.10
2019-04-26T08:29:58.693Z,24.97
2019-04-26T08:30:34.817Z,25.46
2019-04-26T08:31:15.513Z,25.65
2019-04-26T08:31:53.642Z,26.22
2019-04-26T08:32:32.162Z,26.42
2019-04-26T08:33:11.980Z,26.61
2019-04-26T08:33:48.767Z,27.17
2019-04-26T08:34:28.877Z,27.26
2019-04-26T08:35:15.479Z,27.65
2019-04-26T08:35:48.995Z,28.18
2019-04-26T08:36:27.174Z,28.55
2019-04-26T08:37:04.418Z,28.71
2019-04-26T08:37:42.135Z,28.66
2019-04-26T08:38:22.406Z,28.53
2019-04-26T08:38:57.146Z,28.24
2019-04-26T08:39:45.023Z,28.01
2019-04-26T08:40:16.438Z,27.72
2019-04-26T08:40:49.147Z,27.68
2019-04-26T08:41:25.174Z,27.10
2019-04-26T08:42:01.684Z,26.73
2019-04-26T08:42:45.212Z,26.16
2019-04-26T08:43:39.128Z,25.65
2019-04-26T08:44:19.326Z,24.86
2019-04-26T08:44:59.755Z,23.86
2019-04-26T08:46:02.870Z,22.89
2019-04-26T08:46:40.674Z,22.21
2019-04-26T08:47:33.452Z,21.75
2019-04-26T08:48:29.077Z,21.52
2019-04-26T08:49:08.491Z,21.26
2019-04-26T08:49:47.292Z,20.76
2019-04-26T08:50:25.056Z,20.75
2019-04-26T08:51:03.177Z,20.39
2019-04-26T08:51:39.371Z,20.81
2019-04-26T08:52:15.559Z,21.24
2019-04-26T08:52:51.670Z,21.12
2019-04-26T08:53:27.845Z,20.87
2019-04-26T08:54:05.572Z,20.33
2019-04-26T08:54:43.332Z,20.05
2019-04-26T08:55:19.659Z,19.63
2019-04-26T08:55:55.887Z,19.38
2019-04-26T08:56:34.716Z,18.86
2019-04-26T08:57:10.834Z,18.70
2019-04-26T08:57:46.864Z,18.24
2019-04-26T08:58:22.890Z,17.69
2019-04-26T08:59:01.766Z,17.60
2019-04-26T08:59:42.946Z,17.74
2019-04-26T09:00:37.530Z,17.65
2019-04-26T09:01:35.620Z,17.78
2019-04-26T09:02:25.292Z,17.68
2019-04-26T09:03:11.513Z,18.60
2019-04-26T09:03:45.841Z,18.91
2019-04-26T09:04:23.509Z,18.94
2019-04-26T09:05:22.622Z,19.21
2019-04-26T09:06:18.483Z,19.46
2019-04-26T09:06:56.400Z,19.56
2019-04-26T09:07:38.020Z,19.70
2019-04-26T09:08:14.481Z,19.92
2019-04-26T09:08:50.600Z,20.24
2019-04-26T09:09:27.487Z,19.86
2019-04-26T09:10:10.576Z,19.36
2019-04-26T09:10:44.241Z,19.61
2019-04-26T09:11:26.083Z,20.02
2019-04-26T09:12:00.092Z,20.44
2019-04-26T09:12:36.467Z,20.83
2019-04-26T09:13:13.159Z,20.88
2019-04-26T09:13:50.055Z,21.24
2019-04-26T09:14:29.020Z,21.55
2019-04-26T09:15:12.060Z,21.46
2019-04-26T09:16:05.667Z,21.94
2019-04-26T09:16:50.221Z,22.14
2019-04-26T09:17:19.686Z,22.63
2019-04-26T09:17:55.756Z,22.71
2019-04-26T09:18:42.527Z,23.08
2019-04-26T09:19:09.639Z,23.10
2019-04-26T09:19:46.039Z,23.17
2019-04-26T09:20:28.670Z,22.74
2019-04-26T09:20:59.882Z,22.35
2019-04-26T09:21:47.547Z,22.11
2019-04-26T09:22:26.576Z,21.76
2019-04-26T09:23:20.680Z,21.40
2019-04-26T09:24:14.562Z,21.02
2019-04-26T09:24:55.129Z,21.04
2019-04-26T09:25:39.020Z,21.15
2019-04-26T09:26:29.667Z,21.36
2019-04-26T09:27:10.080Z,21.46
2019-04-26T09:27:47.741Z,22.18
2019-04-26T09:28:30.880Z,22.54
2019-04-26T09:29:08.632Z,22.97
2019-04-26T09:29:55.225Z,22.89
2019-04-26T09:30:48.782Z,23.05
2019-04-26T09:31:29.494Z,23.00
2019-04-26T09:32:11.314Z,22.75
2019-04-26T09:32:51.998Z,22.41
2019-04-26T09:33:46.719Z,21.75
2019-04-26T09:34:30.134Z,21.25
2019-04-26T09:35:07.282Z,20.97
2019-04-26T09:35:44.422Z,20.25
2019-04-26T09:36:20.485Z,19.97
2019-04-26T09:36:56.579Z,19.56
2019-04-26T09:37:32.725Z,19.12
2019-04-26T09:38:10.798Z,18.96
2019-04-26T09:38:46.850Z,18.60
2019-04-26T09:39:24.742Z,18.67
2019-04-26T09:40:10.141Z,18.67
2019-04-26T09:40:39.885Z,18.76
2019-04-26T09:41:15.934Z,18.88
2019-04-26T09:41:53.706Z,18.90